createdAt,value
2022-08-05T00:01:48.413Z,20.58
2022-08-05T00:04:18.429Z,20.52
2022-08-05T00:06:47.226Z,20.49
2022-08-05T00:09:19.823Z,20.43
2022-08-05T00:11:55.706Z,20.34
2022-08-05T00:14:26.494Z,20.29
2022-08-05T00:16:57.862Z,20.24
2022-08-05T00:19:33.551Z,20.20
2022-08-05T00:22:02.706Z,20.15
2022-08-05T00:24:32.440Z,20.13
2022-08-05T00:27:04.488Z,20.12
2022-08-05T00:29:38.494Z,20.12
2022-08-05T00:32:12.278Z,20.13
2022-08-05T00:35:03.400Z,20.13
2022-08-05T00:37:53.134Z,20.12
2022-08-05T00:40:27.526Z,20.11
2022-08-05T00:43:00.192Z,20.11
2022-08-05T00:45:42.884Z,20.10
2022-08-05T00:48:14.040Z,20.07
2022-08-05T00:50:46.513Z,20.03
2022-08-05T00:53:45.364Z,20.01
2022-08-05T00:56:07.806Z,19.99
2022-08-05T00:58:38.110Z,19.97
2022-08-05T01:01:08.966Z,19.94
2022-08-05T01:03:39.611Z,19.90
2022-08-05T01:06:13.977Z,19.87
2022-08-05T01:08:44.313Z,19.83
2022-08-05T01:11:22.258Z,19.83
2022-08-05T01:14:09.024Z,19.81
2022-08-05T01:16:54.486Z,19.77
2022-08-05T01:19:36.639Z,19.72
2022-08-05T01:22:41.978Z,19.66
2022-08-05T01:25:40.765Z,19.62
2022-08-05T01:28:24.875Z,19.59
2022-08-05T01:30:56.727Z,19.58
2022-08-05T01:33:35.649Z,19.56
2022-08-05T01:36:12.802Z,19.51
2022-08-05T01:38:49.798Z,19.49
2022-08-05T01:41:25.674Z,19.47
2022-08-05T01:43:55.375Z,19.46
2022-08-05T01:46:42.395Z,19.43
2022-08-05T01:49:24.253Z,19.39
2022-08-05T01:51:58.462Z,19.36
2022-08-05T01:54:45.733Z,19.34
2022-08-05T01:58:12.156Z,19.32
2022-08-05T02:00:13.031Z,19.29
2022-08-05T02:03:24.460Z,19.26
2022-08-05T02:06:00.850Z,19.22
2022-08-05T02:08:33.447Z,19.22
2022-08-05T02:11:16.895Z,19.21
2022-08-05T02:14:12.520Z,19.18
2022-08-05T02:16:52.927Z,19.16
2022-08-05T02:19:34.981Z,19.14
2022-08-05T02:22:27.525Z,19.11
2022-08-05T02:25:04.919Z,19.09
2022-08-05T02:27:59.065Z,19.01
2022-08-05T02:30:28.081Z,19.01
2022-08-05T02:33:00.243Z,18.98
2022-08-05T02:35:33.372Z,18.95
2022-08-05T02:38:09.251Z,18.94
2022-08-05T02:40:42.167Z,18.95
2022-08-05T02:43:14.093Z,18.96
2022-08-05T02:45:52.555Z,18.95
2022-08-05T02:48:29.549Z,18.93
2022-08-05T02:51:00.852Z,18.91
2022-08-05T02:53:39.148Z,18.89
2022-08-05T02:56:16.080Z,18.85
2022-08-05T02:58:51.256Z,18.83
2022-08-05T03:01:25.352Z,18.79
2022-08-05T03:04:02.633Z,18.78
2022-08-05T03:06:53.762Z,18.75
2022-08-05T03:09:36.332Z,18.73
2022-08-05T03:12:07.876Z,18.74
2022-08-05T03:14:40.918Z,18.74
2022-08-05T03:17:14.110Z,18.72
2022-08-05T03:19:42.347Z,18.69
2022-08-05T03:22:16.812Z,18.67
2022-08-05T03:24:50.824Z,18.66
2022-08-05T03:27:20.905Z,18.64
2022-08-05T03:30:07.447Z,18.64
2022-08-05T03:32:38.150Z,18.65
2022-08-05T03:35:08.905Z,18.65
2022-08-05T03:37:40.994Z,18.66
2022-08-05T03:40:15.536Z,18.67
2022-08-05T03:42:56.658Z,18.70
2022-08-05T03:45:25.958Z,18.71
2022-08-05T03:47:57.217Z,18.73
2022-08-05T03:50:42.892Z,18.73
2022-08-05T03:54:59.203Z,18.74
2022-08-05T03:56:26.852Z,18.77
2022-08-05T03:59:02.335Z,18.79
2022-08-05T04:01:33.103Z,18.82
2022-08-05T04:04:09.322Z,18.83
2022-08-05T04:06:47.413Z,18.84
2022-08-05T04:09:20.274Z,18.88
2022-08-05T04:11:56.863Z,18.91
2022-08-05T04:14:30.392Z,18.93
2022-08-05T04:17:00.511Z,18.96
2022-08-05T04:19:29.784Z,18.99
2022-08-05T04:22:08.092Z,19.08
2022-08-05T04:24:52.995Z,19.16
2022-08-05T04:27:33.099Z,19.17
2022-08-05T04:30:10.299Z,19.19
2022-08-05T04:32:39.062Z,19.19
2022-08-05T04:35:17.590Z,19.17
2022-08-05T04:38:02.696Z,19.19
2022-08-05T04:40:36.289Z,19.81
2022-08-05T04:43:05.059Z,20.84
2022-08-05T04:45:48.973Z,21.96
2022-08-05T04:48:27.842Z,23.09
2022-08-05T04:51:03.751Z,23.99
2022-08-05T04:53:41.557Z,24.76
2022-08-05T04:56:32.427Z,25.31
2022-08-05T04:58:58.791Z,25.96
2022-08-05T05:02:05.491Z,26.58
2022-08-05T05:04:14.530Z,27.21
2022-08-05T05:06:49.122Z,27.51
2022-08-05T05:09:18.358Z,27.67
2022-08-05T05:11:54.524Z,27.66
2022-08-05T05:14:27.762Z,27.36
2022-08-05T05:17:00.849Z,26.98
2022-08-05T05:19:36.496Z,26.38
2022-08-05T05:22:23.613Z,25.46
2022-08-05T05:24:58.693Z,24.71
2022-08-05T05:27:44.968Z,24.18
2022-08-05T05:30:29.263Z,23.83
2022-08-05T05:33:03.786Z,23.45
2022-08-05T05:35:48.279Z,23.28
2022-08-05T05:38:22.862Z,23.58
2022-08-05T05:40:56.515Z,24.39
2022-08-05T05:43:57.597Z,25.42
2022-08-05T05:46:17.406Z,26.64
2022-08-05T05:48:47.809Z,27.69
2022-08-05T05:51:21.939Z,28.68
2022-08-05T05:53:57.173Z,29.52
2022-08-05T05:56:34.482Z,30.11
2022-08-05T05:59:07.811Z,30.56
2022-08-05T06:01:39.557Z,31.06
2022-08-05T06:04:12.223Z,31.65
2022-08-05T06:06:46.418Z,32.17
2022-08-05T06:09:24.784Z,32.64
2022-08-05T06:11:59.161Z,33.05
2022-08-05T06:14:33.412Z,33.43
2022-08-05T06:17:22.271Z,33.58
2022-08-05T06:19:57.162Z,33.64
2022-08-05T06:22:33.471Z,33.75
2022-08-05T06:25:59.252Z,33.95
2022-08-05T06:28:12.676Z,34.20
2022-08-05T06:30:39.411Z,34.54
2022-08-05T06:33:09.856Z,34.96
2022-08-05T06:36:08.187Z,35.39
2022-08-05T06:38:36.529Z,35.62
2022-08-05T06:41:07.970Z,35.95
2022-08-05T06:43:59.013Z,36.30
2022-08-05T06:46:29.715Z,36.62
2022-08-05T06:49:01.170Z,36.87
2022-08-05T06:51:30.975Z,37.00
2022-08-05T06:54:00.430Z,37.20
2022-08-05T06:56:33.374Z,37.46
2022-08-05T06:59:08.317Z,37.95
2022-08-05T07:01:41.498Z,38.17
2022-08-05T07:04:10.394Z,38.33
2022-08-05T07:06:38.475Z,38.65
2022-08-05T07:09:06.359Z,38.96
2022-08-05T07:11:36.919Z,39.10
2022-08-05T07:14:28.993Z,38.97
2022-08-05T07:18:01.239Z,38.85
2022-08-05T07:22:42.058Z,39.47
2022-08-05T07:25:55.316Z,39.85
2022-08-05T07:28:04.213Z,40.11
2022-08-05T07:30:38.416Z,40.27
2022-08-05T07:33:16.225Z,40.31
2022-08-05T07:36:05.057Z,40.56
2022-08-05T07:38:43.684Z,40.85
2022-08-05T07:42:13.174Z,41.13
2022-08-05T07:44:18.512Z,41.42
2022-08-05T07:46:50.168Z,41.62
2022-08-05T07:49:19.677Z,41.71
2022-08-05T07:51:52.934Z,41.66
2022-08-05T07:54:31.391Z,41.65
2022-08-05T07:57:17.860Z,41.82
2022-08-05T07:59:52.176Z,42.10
2022-08-05T08:02:31.454Z,42.30
2022-08-05T08:05:17.449Z,42.16
2022-08-05T08:07:59.110Z,42.12
2022-08-05T08:10:29.223Z,42.43
2022-08-05T08:12:58.537Z,42.92
2022-08-05T08:16:33.404Z,43.46
2022-08-05T08:18:14.757Z,43.79
2022-08-05T08:21:02.897Z,44.09
2022-08-05T08:24:02.356Z,44.17
2022-08-05T08:26:29.829Z,44.14
2022-08-05T08:29:21.756Z,44.27
2022-08-05T08:31:49.909Z,44.44
2022-08-05T08:34:30.333Z,44.45
2022-08-05T08:37:05.022Z,43.99
2022-08-05T08:39:37.858Z,43.84
2022-08-05T08:42:15.173Z,43.97
2022-08-05T08:45:19.144Z,44.18
2022-08-05T08:48:12.513Z,44.54
2022-08-05T08:51:03.847Z,44.62
2022-08-05T08:53:35.874Z,44.47
2022-08-05T08:56:06.155Z,44.44
2022-08-05T08:58:43.253Z,44.20
2022-08-05T09:01:15.732Z,44.06
2022-08-05T09:03:54.283Z,43.90
2022-08-05T09:06:28.055Z,43.77
2022-08-05T09:09:01.135Z,43.64
2022-08-05T09:11:52.686Z,43.46
2022-08-05T09:14:56.384Z,43.47
2022-08-05T09:17:40.106Z,43.30
2022-08-05T09:20:04.787Z,42.98
2022-08-05T09:23:05.219Z,42.78
2022-08-05T09:26:01.420Z,42.52
2022-08-05T09:28:32.282Z,42.02
2022-08-05T09:31:44.124Z,41.28
2022-08-05T09:34:07.372Z,40.45
2022-08-05T09:36:54.382Z,39.80
2022-08-05T09:39:27.848Z,39.05
2022-08-05T09:42:11.365Z,38.18
2022-08-05T09:44:50.438Z,37.52
2022-08-05T09:47:24.548Z,37.22
2022-08-05T09:50:01.003Z,37.02
2022-08-05T09:52:35.567Z,36.75
2022-08-05T09:55:55.257Z,36.57
2022-08-05T09:57:54.805Z,36.55
2022-08-05T10:00:27.782Z,36.71
2022-08-05T10:02:59.135Z,36.70
2022-08-05T10:05:29.382Z,36.64
2022-08-05T10:08:34.793Z,36.49
2022-08-05T10:10:54.108Z,36.36
2022-08-05T10:13:47.144Z,36.33
2022-08-05T10:16:41.893Z,36.29
2022-08-05T10:19:23.535Z,36.12
2022-08-05T10:22:08.988Z,36.08
2022-08-05T10:24:43.824Z,36.05
2022-08-05T10:27:16.717Z,36.09
2022-08-05T10:30:41.191Z,36.14
2022-08-05T10:32:55.810Z,36.18
2022-08-05T10:35:20.714Z,36.14
2022-08-05T10:38:02.768Z,36.11
2022-08-05T10:40:49.352Z,36.11
2022-08-05T10:43:35.934Z,35.98
2022-08-05T10:46:07.202Z,35.90
2022-08-05T10:48:57.303Z,35.91
2022-08-05T10:51:53.067Z,35.86
2022-08-05T10:54:56.520Z,35.75
2022-08-05T10:57:32.085Z,35.98
2022-08-05T11:00:20.503Z,36.09
2022-08-05T11:03:24.258Z,36.08
2022-08-05T11:06:08.445Z,35.88
2022-08-05T11:09:32.298Z,35.70
2022-08-05T11:12:50.728Z,35.39
2022-08-05T11:16:00.346Z,35.24
2022-08-05T11:18:34.080Z,35.48
2022-08-05T11:21:06.302Z,35.70
2022-08-05T11:24:04.750Z,35.88
2022-08-05T11:26:43.432Z,36.03
2022-08-05T11:29:35.854Z,36.16
2022-08-05T11:32:26.426Z,36.09
2022-08-05T11:34:55.728Z,36.02
2022-08-05T11:38:28.778Z,36.02
2022-08-05T11:41:35.310Z,35.89
2022-08-05T11:44:05.696Z,35.85
2022-08-05T11:46:36.849Z,35.88
2022-08-05T11:49:07.933Z,36.00
2022-08-05T11:51:44.235Z,36.10
2022-08-05T11:54:33.525Z,36.14
2022-08-05T11:57:08.028Z,36.01
2022-08-05T11:59:49.726Z,35.90
2022-08-05T12:02:30.740Z,35.89
2022-08-05T12:05:08.018Z,35.92
2022-08-05T12:08:08.180Z,35.91
2022-08-05T12:10:42.970Z,35.84
2022-08-05T12:13:18.819Z,35.91
2022-08-05T12:16:15.443Z,35.92
2022-08-05T12:18:49.113Z,35.82
2022-08-05T12:21:31.851Z,35.80
2022-08-05T12:24:10.797Z,35.67
2022-08-05T12:26:46.486Z,35.63
2022-08-05T12:29:26.787Z,35.70
2022-08-05T12:32:02.167Z,35.76
2022-08-05T12:34:36.980Z,35.87
2022-08-05T12:37:17.343Z,35.95
2022-08-05T12:40:03.192Z,35.95
2022-08-05T12:42:32.029Z,35.94
2022-08-05T12:45:08.877Z,36.01
2022-08-05T12:47:43.552Z,36.10
2022-08-05T12:50:26.520Z,36.11
2022-08-05T12:53:00.064Z,36.04
2022-08-05T12:55:32.484Z,36.02
2022-08-05T12:58:38.872Z,36.06
2022-08-05T13:02:01.733Z,36.11
2022-08-05T13:03:43.021Z,36.13
2022-08-05T13:06:16.623Z,36.06
2022-08-05T13:08:50.810Z,36.06
2022-08-05T13:11:47.030Z,36.10
2022-08-05T13:14:24.996Z,36.08
2022-08-05T13:17:31.639Z,36.02
2022-08-05T13:20:03.393Z,36.06
2022-08-05T13:22:32.471Z,36.15
2022-08-05T13:25:05.845Z,36.26
2022-08-05T13:27:41.945Z,36.25
2022-08-05T13:30:32.772Z,36.18
2022-08-05T13:33:02.166Z,36.10
2022-08-05T13:35:42.704Z,36.02
2022-08-05T13:38:28.363Z,35.92
2022-08-05T13:41:00.288Z,35.77
2022-08-05T13:43:43.295Z,35.64
2022-08-05T13:46:14.745Z,35.59
2022-08-05T13:48:57.601Z,35.61
2022-08-05T13:51:40.102Z,35.57
2022-08-05T13:54:12.594Z,35.53
2022-08-05T13:56:45.173Z,35.45
2022-08-05T13:59:24.626Z,35.39
2022-08-05T14:01:58.242Z,35.32
2022-08-05T14:04:50.187Z,35.35
2022-08-05T14:07:59.658Z,35.32
2022-08-05T14:10:27.904Z,35.22
2022-08-05T14:12:57.544Z,35.13
2022-08-05T14:16:07.848Z,35.03
2022-08-05T14:18:14.733Z,35.01
2022-08-05T14:20:47.963Z,35.08
2022-08-05T14:23:24.751Z,35.17
2022-08-05T14:25:58.024Z,35.21
2022-08-05T14:28:29.691Z,35.23
2022-08-05T14:30:59.033Z,35.29
2022-08-05T14:33:26.822Z,35.32
2022-08-05T14:35:54.964Z,35.33
2022-08-05T14:38:31.639Z,35.37
2022-08-05T14:41:06.256Z,35.43
2022-08-05T14:43:59.084Z,35.43
2022-08-05T14:46:28.538Z,35.36
2022-08-05T14:49:03.462Z,35.25
2022-08-05T14:51:42.547Z,35.20
2022-08-05T14:54:28.386Z,35.18
2022-08-05T14:56:58.766Z,35.13
2022-08-05T14:59:29.470Z,35.05
2022-08-05T15:02:14.855Z,34.97
2022-08-05T15:04:44.978Z,34.92
2022-08-05T15:08:08.711Z,34.86
2022-08-05T15:10:04.155Z,34.76
2022-08-05T15:12:59.416Z,34.67
2022-08-05T15:15:54.430Z,34.60
2022-08-05T15:18:15.240Z,34.48
2022-08-05T15:20:46.035Z,34.37
2022-08-05T15:23:14.378Z,34.32
2022-08-05T15:25:53.812Z,34.33
2022-08-05T15:28:27.661Z,34.35
2022-08-05T15:30:56.751Z,34.30
2022-08-05T15:34:05.910Z,34.22
2022-08-05T15:36:17.505Z,34.14
2022-08-05T15:41:00.569Z,34.05
2022-08-05T15:41:56.387Z,33.95
2022-08-05T15:44:30.820Z,33.88
2022-08-05T15:47:01.792Z,33.87
2022-08-05T15:49:40.021Z,33.87
2022-08-05T15:52:52.292Z,33.89
2022-08-05T15:55:15.602Z,33.89
2022-08-05T15:57:45.213Z,33.86
2022-08-05T16:00:16.839Z,33.85
2022-08-05T16:02:53.891Z,33.85
2022-08-05T16:05:23.006Z,33.87
2022-08-05T16:07:57.154Z,33.82
2022-08-05T16:10:26.786Z,33.86
2022-08-05T16:12:55.890Z,33.84
2022-08-05T16:15:24.437Z,33.81
2022-08-05T16:18:00.557Z,33.75
2022-08-05T16:20:32.429Z,33.71
2022-08-05T16:23:00.955Z,33.63
2022-08-05T16:25:33.952Z,33.56
2022-08-05T16:28:09.463Z,33.51
2022-08-05T16:30:38.361Z,33.47
2022-08-05T16:33:06.610Z,33.43
2022-08-05T16:35:42.517Z,33.40
2022-08-05T16:38:24.752Z,33.37
2022-08-05T16:41:01.392Z,33.34
2022-08-05T16:43:33.578Z,33.30
2022-08-05T16:46:23.826Z,33.20
2022-08-05T16:48:51.867Z,33.20
2022-08-05T16:51:20.739Z,33.16
2022-08-05T16:54:05.650Z,33.12
2022-08-05T16:56:41.390Z,33.09
2022-08-05T16:59:10.496Z,33.05
2022-08-05T17:01:54.204Z,32.97
2022-08-05T17:04:26.320Z,32.85
2022-08-05T17:07:00.229Z,32.87
2022-08-05T17:09:30.176Z,32.85
2022-08-05T17:11:59.860Z,32.81
2022-08-05T17:14:36.707Z,32.78
2022-08-05T17:17:09.285Z,32.74
2022-08-05T17:19:45.717Z,32.69
2022-08-05T17:22:24.806Z,32.66
2022-08-05T17:24:58.175Z,32.60
2022-08-05T17:27:33.559Z,32.54
2022-08-05T17:30:07.124Z,32.49
2022-08-05T17:32:42.139Z,32.44
2022-08-05T17:35:12.310Z,32.39
2022-08-05T17:37:45.503Z,32.32
2022-08-05T17:40:18.271Z,32.21
2022-08-05T17:42:53.386Z,32.12
2022-08-05T17:45:25.177Z,32.00
2022-08-05T17:48:08.002Z,31.82
2022-08-05T17:50:36.101Z,31.66
2022-08-05T17:53:05.268Z,31.49
2022-08-05T17:55:38.512Z,31.34
2022-08-05T17:58:14.569Z,31.18
2022-08-05T18:00:51.009Z,31.04
2022-08-05T18:03:48.449Z,30.88
2022-08-05T18:06:10.981Z,30.72
2022-08-05T18:08:52.195Z,30.59
2022-08-05T18:11:24.735Z,30.46
2022-08-05T18:14:07.292Z,30.32
2022-08-05T18:16:43.780Z,30.18
2022-08-05T18:19:22.697Z,30.04
2022-08-05T18:22:07.438Z,29.93
2022-08-05T18:24:39.649Z,29.79
2022-08-05T18:27:12.325Z,29.67
2022-08-05T18:29:53.501Z,29.53
2022-08-05T18:32:28.018Z,29.41
2022-08-05T18:34:57.859Z,29.28
2022-08-05T18:37:34.768Z,29.20
2022-08-05T18:41:50.204Z,29.08
2022-08-05T18:43:01.075Z,28.95
2022-08-05T18:45:41.888Z,28.75
2022-08-05T18:48:11.196Z,28.75
2022-08-05T18:52:02.828Z,28.66
2022-08-05T18:53:50.424Z,28.55
2022-08-05T18:56:21.521Z,28.47
2022-08-05T18:58:51.006Z,28.40
2022-08-05T19:01:47.644Z,28.32
2022-08-05T19:04:12.298Z,28.23
2022-08-05T19:06:45.270Z,28.14
2022-08-05T19:09:13.451Z,28.03
2022-08-05T19:12:00.210Z,27.94
2022-08-05T19:14:53.252Z,27.87
2022-08-05T19:17:19.192Z,27.82
2022-08-05T19:19:48.648Z,27.80
2022-08-05T19:22:17.723Z,27.78
2022-08-05T19:24:54.546Z,27.77
2022-08-05T19:27:27.823Z,27.76
2022-08-05T19:29:58.719Z,27.74
2022-08-05T19:32:27.800Z,27.72
2022-08-05T19:34:57.830Z,27.61
2022-08-05T19:37:35.135Z,27.63
2022-08-05T19:40:17.506Z,27.53
2022-08-05T19:43:05.580Z,27.56
2022-08-05T19:45:36.837Z,27.50
2022-08-05T19:48:06.292Z,27.46
2022-08-05T19:50:35.216Z,27.41
2022-08-05T19:53:09.611Z,27.35
2022-08-05T19:56:15.228Z,27.29
2022-08-05T19:58:29.547Z,27.23
2022-08-05T20:00:58.974Z,27.19
2022-08-05T20:03:27.411Z,27.14
2022-08-05T20:06:15.610Z,27.08
2022-08-05T20:08:47.390Z,27.00
2022-08-05T20:11:18.095Z,27.02
2022-08-05T20:13:58.981Z,27.01
2022-08-05T20:16:35.516Z,26.98
2022-08-05T20:19:04.410Z,26.95
2022-08-05T20:21:33.267Z,26.94
2022-08-05T20:24:01.155Z,26.92
2022-08-05T20:26:29.544Z,26.87
2022-08-05T20:29:00.665Z,26.82
2022-08-05T20:31:42.061Z,26.78
2022-08-05T20:34:17.559Z,26.72
2022-08-05T20:36:45.703Z,26.64
2022-08-05T20:39:16.249Z,26.55
2022-08-05T20:41:47.724Z,26.44
2022-08-05T20:44:29.817Z,26.30
2022-08-05T20:47:01.554Z,26.20
2022-08-05T20:49:33.185Z,26.15
2022-08-05T20:52:08.733Z,26.15
2022-08-05T20:54:43.514Z,26.17
2022-08-05T20:57:43.850Z,26.20
2022-08-05T21:00:41.006Z,26.23
2022-08-05T21:03:06.979Z,26.24
2022-08-05T21:05:47.581Z,26.18
2022-08-05T21:08:28.053Z,26.18
2022-08-05T21:11:11.873Z,26.14
2022-08-05T21:13:55.697Z,26.05
2022-08-05T21:16:29.891Z,26.05
2022-08-05T21:19:00.873Z,26.01
2022-08-05T21:21:39.206Z,25.97
2022-08-05T21:24:15.313Z,25.94
2022-08-05T21:26:53.418Z,25.91
2022-08-05T21:29:32.090Z,25.87
2022-08-05T21:32:04.113Z,25.84
2022-08-05T21:34:33.114Z,25.81
2022-08-05T21:37:05.096Z,25.77
2022-08-05T21:39:34.747Z,25.70
2022-08-05T21:42:30.924Z,25.63
2022-08-05T21:44:56.930Z,25.58
2022-08-05T21:47:54.890Z,25.54
2022-08-05T21:50:14.776Z,25.49
2022-08-05T21:52:45.900Z,25.45
2022-08-05T21:55:15.612Z,25.38
2022-08-05T21:57:43.501Z,25.32
2022-08-05T22:00:15.232Z,25.25
2022-08-05T22:02:43.605Z,25.20
2022-08-05T22:05:12.489Z,25.16
2022-08-05T22:07:58.451Z,25.13
2022-08-05T22:10:28.248Z,25.09
2022-08-05T22:12:58.811Z,24.88
2022-08-05T22:16:02.035Z,25.01
2022-08-05T22:18:15.299Z,24.97
2022-08-05T22:20:47.477Z,24.93
2022-08-05T22:24:02.509Z,24.91
2022-08-05T22:26:49.440Z,24.88
2022-08-05T22:29:19.011Z,24.84
2022-08-05T22:31:55.150Z,24.81
2022-08-05T22:34:28.647Z,24.77
2022-08-05T22:36:58.500Z,24.75
2022-08-05T22:39:33.763Z,24.72
2022-08-05T22:42:11.549Z,24.70
2022-08-05T22:44:48.376Z,24.67
2022-08-05T22:47:29.500Z,24.63
2022-08-05T22:50:22.831Z,24.61
2022-08-05T22:52:51.531Z,24.58
2022-08-05T22:55:23.047Z,24.56
2022-08-05T22:57:52.553Z,24.49
2022-08-05T23:00:22.317Z,24.43
2022-08-05T23:02:52.223Z,24.39
2022-08-05T23:05:22.238Z,24.35
2022-08-05T23:07:52.126Z,24.32
2022-08-05T23:10:23.722Z,24.30
2022-08-05T23:12:55.105Z,24.30
2022-08-05T23:15:29.980Z,24.30
2022-08-05T23:18:06.086Z,24.28
2022-08-05T23:20:43.804Z,24.25
2022-08-05T23:23:11.739Z,24.21
2022-08-05T23:25:52.436Z,24.17
2022-08-05T23:28:28.556Z,24.13
2022-08-05T23:31:15.690Z,24.10
2022-08-05T23:34:02.884Z,24.08
2022-08-05T23:36:41.401Z,24.07
2022-08-05T23:39:16.547Z,24.08
2022-08-05T23:41:56.267Z,24.10
2022-08-05T23:44:25.176Z,24.11
2022-08-05T23:46:56.100Z,24.04
2022-08-05T23:49:34.096Z,24.10
2022-08-05T23:52:25.366Z,24.09
2022-08-05T23:54:54.561Z,24.10
2022-08-05T23:57:28.272Z,24.11
